首页
METAR-TAF:

METAR-TAF

机场 :

菲利普戈尔德森国际机场

伯利兹, 伯利兹

纬度: 17-32N, 经度: 088-18W, 海拔: 5米

当前天气观测

该预报发布于10小时和5分钟前的00:00 UTC
风速3节,风向西转西北
温度 26°C
湿度 94%
气压 1009 hPa
能见度10公里或以上
少量云层高于1800英尺

METAR: MZBZ 190000Z 30003KT 9999 FEW018 26/25 A2981 Q1009 NOSIG RMK DIST CBTOP-NW

时间: 04:05 (10:05 UTC)

预报

该预报发布于7小时和5分钟前的03:00 UTC
预报有效从19日的 06点(UTC)到 20日的 06点(UTC)
风速4节,风向西转西北
能见度10公里或以上
散云层高于1800英尺
散云层高于4500英尺
几率 40% :
短暂存在
从 19日的 06点(UTC)到 19日的 10点(UTC)
能見度: 5000
少量云层高于1200英尺, 积雨云.
雷暴, 雨
成为
从 19日的 21点(UTC)到 19日的 23点(UTC)
风速5节,风向东转东北
几率 30% :
短暂存在
从 19日的 22点(UTC)到 20日的 05点(UTC)
能見度: 5000
少量云层高于1200英尺, 积雨云.
雷暴, 雨

TAF: MZBZ 190300Z 1906/2006 29004KT 9999 SCT018 SCT045 PROB40 TEMPO 1906/1910 5000 TSRA FEW012CB BECMG 1921/1923 07005KT PROB30 TEMPO 1922/2005 5000 TSRA FEW012CB

超过4000个机场的气象观测和天气预报(METAR&TAF报告)。

可查询的气象台以黄色和红色小点在地图上表示。

将鼠标移到小点上方,可查看气象台名称。

然后点击查看天气观测和预报。

如需切换地图:点击带黑十字的绿色按钮放大地图;点击带横线的绿色按钮缩小地图;或者点击绿色箭头查看邻近地区的地图。


METAR-TAF: